Time;durP1;ratioP1;P1;durP2;ratioP2;P2;SDS_P1;SDS_P2;PMS_P1;PMS_P2;Temp;Humidity;BMP_temperature;BMP_pressure;BME280_temperature;BME280_humidity;BME280_pressure;Samples;Min_cycle;Max_cycle;Signal;HPM_P1;HPM_P2
2024/04/08 00:00:11;;;;;;;5.25;1.20;;;;;;;16.10;85.53;92678.38;2098271;28;20032;-86
2024/04/08 00:01:12;;;;;;;6.32;1.20;;;;;;;15.98;86.60;92673.97;2098464;28;20048;-85
2024/04/08 00:02:13;;;;;;;3.13;1.67;;;;;;;16.00;88.52;92676.97;2098354;28;20393;-86
2024/04/08 00:03:14;;;;;;;6.47;1.30;;;;;;;16.14;87.53;92672.81;2100565;28;20028;-84
2024/04/08 00:04:15;;;;;;;4.00;1.45;;;;;;;16.08;87.63;92668.06;2106607;28;20024;-84
2024/04/08 00:05:20;;;;;;;6.95;1.70;;;;;;;16.07;88.14;92663.88;2098282;28;20474;-85
2024/04/08 00:06:21;;;;;;;9.27;1.30;;;;;;;16.09;88.86;92666.84;2099519;28;20051;-85
2024/04/08 00:07:22;;;;;;;6.03;1.33;;;;;;;15.93;91.58;92667.28;2106796;28;20024;-84
2024/04/08 00:08:23;;;;;;;4.53;1.27;;;;;;;15.94;90.34;92657.25;2114948;28;20408;-88
2024/04/08 00:09:24;;;;;;;5.38;1.20;;;;;;;15.90;90.97;92662.81;2106689;28;20093;-86
2024/04/08 00:10:25;;;;;;;7.75;1.63;;;;;;;15.82;92.06;92656.28;2106688;28;20020;-85
2024/04/08 00:11:26;;;;;;;6.68;1.17;;;;;;;15.70;93.54;92666.09;2098084;28;20047;-86
2024/04/08 00:12:27;;;;;;;4.55;1.80;;;;;;;15.76;93.77;92666.19;2106793;28;20024;-85
2024/04/08 00:13:28;;;;;;;6.53;1.35;;;;;;;15.84;92.79;92660.00;2089921;28;20037;-86
2024/04/08 00:14:29;;;;;;;3.90;1.20;;;;;;;15.97;91.70;92657.06;2098081;28;20031;-85
2024/04/08 00:15:30;;;;;;;5.88;1.33;;;;;;;16.04;89.93;92651.31;2096823;28;20020;-86
2024/04/08 00:16:31;;;;;;;4.40;1.60;;;;;;;15.73;92.33;92659.78;2091598;28;20071;-89
2024/04/08 00:17:32;;;;;;;5.00;1.80;;;;;;;15.76;93.26;92661.56;2101743;28;20031;-85
2024/04/08 00:18:33;;;;;;;5.07;1.40;;;;;;;15.79;92.45;92662.59;2098051;28;20095;-85
2024/04/08 00:19:34;;;;;;;10.40;1.73;;;;;;;15.87;92.14;92655.66;2106319;28;20024;-86
2024/04/08 00:20:35;;;;;;;5.18;1.30;;;;;;;15.83;88.32;92653.13;2089969;28;20071;-86
2024/04/08 00:21:36;;;;;;;5.05;1.58;;;;;;;15.90;88.25;92648.59;2098170;28;20025;-86
2024/04/08 00:22:40;;;;;;;6.18;1.20;;;;;;;15.91;87.03;92650.09;2098453;28;20054;-86
2024/04/08 00:23:42;;;;;;;8.95;1.50;;;;;;;15.76;90.07;92645.41;2104562;28;20016;-88
2024/04/08 00:24:43;;;;;;;6.53;1.70;;;;;;;15.67;91.04;92645.47;2098632;28;20111;-86
2024/04/08 00:25:44;;;;;;;7.05;2.00;;;;;;;15.78;90.71;92648.38;2098323;28;20458;-86
2024/04/08 00:26:45;;;;;;;7.70;1.40;;;;;;;15.88;90.01;92645.59;2106715;28;20035;-88
2024/04/08 00:27:46;;;;;;;4.10;1.63;;;;;;;15.60;91.30;92643.81;2114688;28;20059;-88
2024/04/08 00:28:47;;;;;;;10.13;1.60;;;;;;;15.52;92.19;92645.38;2106490;28;20024;-87
2024/04/08 00:29:49;;;;;;;4.28;1.50;;;;;;;15.47;93.30;92646.00;2098025;28;20024;-86
2024/04/08 00:30:50;;;;;;;5.82;1.30;;;;;;;15.49;93.78;92640.88;2091373;28;20024;-86
2024/04/08 00:31:50;;;;;;;8.88;1.35;;;;;;;15.51;92.97;92645.84;2089987;28;20052;-85
2024/04/08 00:32:52;;;;;;;4.28;1.30;;;;;;;15.43;93.39;92642.72;2089861;28;20037;-87
2024/04/08 00:33:53;;;;;;;7.18;1.15;;;;;;;15.28;95.01;92637.28;2089928;28;20092;-88
2024/04/08 00:34:54;;;;;;;3.67;1.40;;;;;;;15.29;96.24;92646.09;2098247;28;20025;-86
2024/04/08 00:35:55;;;;;;;4.38;1.00;;;;;;;15.50;93.75;92647.78;2089779;28;20478;-85
2024/04/08 00:36:57;;;;;;;5.63;1.40;;;;;;;15.55;92.20;92643.72;2089962;28;20025;-85
2024/04/08 00:37:58;;;;;;;4.18;1.20;;;;;;;15.61;91.97;92648.00;2106674;28;20058;-88
2024/04/08 00:38:58;;;;;;;8.38;1.58;;;;;;;15.74;91.39;92644.34;2108306;28;20027;-85
2024/04/08 00:39:59;;;;;;;4.35;1.30;;;;;;;15.77;91.96;92649.56;2114900;28;20055;-87
2024/04/08 00:41:03;;;;;;;10.73;1.55;;;;;;;15.84;90.83;92640.38;2114885;28;20026;-88
2024/04/08 00:42:04;;;;;;;3.47;1.20;;;;;;;15.81;89.90;92642.06;2115098;27;20492;-86
2024/04/08 00:43:07;;;;;;;5.25;1.20;;;;;;;15.92;89.33;92633.44;2114922;28;20531;-87
2024/04/08 00:44:08;;;;;;;4.85;1.10;;;;;;;16.11;88.55;92639.41;2106472;28;20102;-85
2024/04/08 00:45:11;;;;;;;3.78;1.40;;;;;;;15.71;93.28;92639.88;2106697;28;20039;-87
2024/04/08 00:46:22;;;;;;;5.90;1.17;;;;;;;15.36;96.31;92641.13;2098495;28;20043;-85
2024/04/08 00:47:23;;;;;;;8.57;1.50;;;;;;;15.35;96.28;92633.50;2107745;28;20083;-85
2024/04/08 00:48:25;;;;;;;7.50;1.42;;;;;;;15.38;95.94;92640.66;2106284;28;20036;-85
2024/04/08 00:49:28;;;;;;;4.40;1.40;;;;;;;15.50;96.22;92634.31;2114940;28;20096;-85
2024/04/08 00:50:29;;;;;;;2.88;1.23;;;;;;;15.36;97.15;92624.19;2106711;28;20032;-87
2024/04/08 00:51:30;;;;;;;4.43;1.38;;;;;;;15.43;96.52;92634.66;2106329;28;20024;-85
2024/04/08 00:52:32;;;;;;;9.82;1.55;;;;;;;15.27;97.56;92625.00;2106575;28;20051;-86
2024/04/08 00:53:34;;;;;;;2.97;1.38;;;;;;;15.28;97.61;92629.22;2106338;28;20232;-87
2024/04/08 00:54:35;;;;;;;4.35;1.38;;;;;;;15.19;99.62;92628.47;2107260;28;20027;-85
2024/04/08 00:55:37;;;;;;;4.28;1.45;;;;;;;15.35;99.27;92625.41;2106371;28;20055;-88
2024/04/08 00:56:39;;;;;;;8.20;1.30;;;;;;;15.40;98.79;92627.47;2106612;28;20103;-85
2024/04/08 00:57:51;;;;;;;7.25;1.33;;;;;;;15.13;99.04;92627.63;2106642;28;20433;-84
2024/04/08 00:58:52;;;;;;;3.90;1.45;;;;;;;15.34;96.58;92632.00;2107785;28;20101;-85
2024/04/08 00:59:53;;;;;;;9.23;1.40;;;;;;;15.42;96.04;92630.47;2106250;27;20048;-84
2024/04/08 01:00:54;;;;;;;7.43;1.40;;;;;;;15.32;95.90;92623.63;2106385;28;20032;-85
2024/04/08 01:01:56;;;;;;;7.60;1.75;;;;;;;15.35;98.37;92622.72;2098255;28;20024;-86
2024/04/08 01:03:03;;;;;;;4.18;1.10;;;;;;;15.38;97.65;92627.19;2093933;28;20426;-83
2024/04/08 01:04:04;;;;;;;6.55;2.03;;;;;;;15.22;98.10;92625.63;2107895;27;20052;-84
2024/04/08 01:05:06;;;;;;;9.82;1.73;;;;;;;15.34;98.56;92623.94;2106030;28;20058;-84
2024/04/08 01:06:07;;;;;;;4.30;1.55;;;;;;;15.30;98.14;92623.34;2098109;28;20029;-87
2024/04/08 01:07:08;;;;;;;8.60;2.17;;;;;;;15.19;99.95;92621.19;2105642;28;20019;-86
2024/04/08 01:08:09;;;;;;;7.13;1.58;;;;;;;15.22;98.74;92611.44;2097458;28;20122;-85
2024/04/08 01:09:11;;;;;;;8.27;1.73;;;;;;;15.25;98.25;92613.22;2091379;28;20047;-85
2024/04/08 01:10:12;;;;;;;3.70;1.42;;;;;;;15.34;97.59;92613.16;2104225;28;20077;-87
2024/04/08 01:11:13;;;;;;;8.93;1.83;;;;;;;15.10;99.13;92605.81;2114789;28;20024;-85
2024/04/08 01:12:14;;;;;;;4.32;1.55;;;;;;;15.19;98.73;92605.03;2097783;28;20442;-85
2024/04/08 01:13:15;;;;;;;5.57;1.38;;;;;;;15.08;100.00;92610.16;2106440;28;20020;-86
2024/04/08 01:14:16;;;;;;;6.38;1.58;;;;;;;15.15;99.60;92609.84;2114619;28;20047;-86
2024/04/08 01:15:19;;;;;;;4.60;1.52;;;;;;;15.16;98.80;92599.81;2089580;28;20029;-85
2024/04/08 01:16:20;;;;;;;4.80;1.10;;;;;;;15.06;100.00;92605.25;2098132;28;20028;-84
2024/04/08 01:17:21;;;;;;;4.53;1.70;;;;;;;15.07;100.00;92604.03;2106312;28;20124;-86
2024/04/08 01:18:22;;;;;;;3.67;1.23;;;;;;;15.10;99.64;92602.34;2106111;28;20022;-84
2024/04/08 01:19:23;;;;;;;7.25;1.33;;;;;;;15.10;100.00;92603.13;2106109;28;20028;-83
2024/04/08 01:20:24;;;;;;;6.63;1.80;;;;;;;15.13;100.00;92611.47;2097611;28;20055;-86
2024/04/08 01:21:25;;;;;;;6.32;1.48;;;;;;;15.08;100.00;92613.59;2097730;28;20765;-85
2024/04/08 01:22:31;;;;;;;4.35;1.13;;;;;;;15.03;100.00;92606.16;2097689;28;20115;-86
2024/04/08 01:23:41;;;;;;;4.35;1.45;;;;;;;14.99;100.00;92602.88;2090847;28;20540;-87
2024/04/08 01:24:42;;;;;;;8.68;1.73;;;;;;;14.88;100.00;92604.56;2092252;28;20128;-87
2024/04/08 01:25:43;;;;;;;5.05;1.40;;;;;;;14.77;100.00;92600.41;2089549;28;20035;-87
2024/04/08 01:26:44;;;;;;;7.97;1.40;;;;;;;14.78;100.00;92609.25;2089665;28;20127;-86
2024/04/08 01:27:45;;;;;;;6.20;1.40;;;;;;;14.84;100.00;92618.19;2097584;28;20078;-88
2024/04/08 01:28:46;;;;;;;6.57;1.60;;;;;;;14.92;100.00;92613.97;2106022;28;20491;-87
2024/04/08 01:29:47;;;;;;;2.33;1.02;;;;;;;14.94;100.00;92614.25;2106003;28;20024;-86
2024/04/08 01:30:51;;;;;;;4.38;1.35;;;;;;;15.02;100.00;92617.38;2106057;28;20449;-85
2024/04/08 01:31:52;;;;;;;7.03;1.40;;;;;;;14.93;100.00;92620.84;2114398;28;20051;-86
2024/04/08 01:32:53;;;;;;;8.15;1.48;;;;;;;14.91;100.00;92619.81;2097759;28;20466;-89
2024/04/08 01:33:54;;;;;;;7.40;1.90;;;;;;;14.82;100.00;92621.31;2097738;28;20482;-86
2024/04/08 01:34:55;;;;;;;4.40;1.00;;;;;;;14.90;100.00;92621.75;2105875;28;20039;-87
2024/04/08 01:36:04;;;;;;;6.03;1.27;;;;;;;15.04;100.00;92618.41;2097598;28;20032;-84
2024/04/08 01:37:07;;;;;;;5.60;1.73;;;;;;;14.85;100.00;92619.69;2092406;28;20025;-86
2024/04/08 01:38:30;;;;;;;4.95;1.73;;;;;;;14.84;100.00;92632.41;2098093;28;20029;-86
2024/04/08 01:39:31;;;;;;;9.27;1.58;;;;;;;14.84;100.00;92629.72;2102592;28;20030;-87
2024/04/08 01:40:32;;;;;;;3.60;1.80;;;;;;;14.94;100.00;92621.59;2089533;28;20033;-85
2024/04/08 01:41:33;;;;;;;5.55;1.30;;;;;;;14.89;100.00;92622.97;2106653;27;20032;-86
2024/04/08 01:42:34;;;;;;;8.07;1.90;;;;;;;14.89;100.00;92631.03;2106045;28;20039;-87
2024/04/08 01:43:35;;;;;;;3.80;1.30;;;;;;;14.81;100.00;92630.59;2102630;28;20020;-85
2024/04/08 01:44:36;;;;;;;7.85;1.80;;;;;;;14.73;100.00;92628.69;2122819;27;20030;-88
2024/04/08 01:45:37;;;;;;;5.53;1.30;;;;;;;14.73;100.00;92632.13;2114386;28;20383;-87
2024/04/08 01:46:38;;;;;;;5.90;1.75;;;;;;;14.68;100.00;92629.31;2097837;28;20025;-85
2024/04/08 01:47:39;;;;;;;4.85;1.52;;;;;;;14.71;100.00;92629.16;2106105;28;20408;-85
2024/04/08 01:48:40;;;;;;;6.15;1.50;;;;;;;14.76;100.00;92628.53;2105956;28;20095;-85
2024/04/08 01:49:41;;;;;;;5.40;1.60;;;;;;;14.76;100.00;92625.09;2097693;28;20190;-88
2024/04/08 01:50:42;;;;;;;5.68;1.55;;;;;;;14.65;100.00;92630.22;2105807;28;20119;-87
2024/04/08 01:51:43;;;;;;;9.43;2.05;;;;;;;14.54;100.00;92622.63;2097709;28;20020;-86
2024/04/08 01:52:53;;;;;;;5.30;1.67;;;;;;;14.52;100.00;92625.00;2097721;28;20115;-87
2024/04/08 01:53:54;;;;;;;7.15;1.45;;;;;;;14.38;100.00;92626.38;2114238;28;20023;-87
2024/04/08 01:54:54;;;;;;;5.40;1.60;;;;;;;14.37;100.00;92630.25;2114312;28;20039;-88
2024/04/08 01:55:55;;;;;;;4.30;1.40;;;;;;;14.51;100.00;92637.72;2097416;28;20115;-88
2024/04/08 01:56:56;;;;;;;7.60;1.60;;;;;;;14.29;100.00;92635.19;2114372;28;20557;-87
2024/04/08 01:57:58;;;;;;;6.85;1.23;;;;;;;14.34;100.00;92626.50;2114370;28;20023;-86
2024/04/08 01:58:58;;;;;;;5.70;1.63;;;;;;;14.16;100.00;92642.69;2105659;28;20019;-86
2024/04/08 02:00:00;;;;;;;5.18;1.45;;;;;;;14.22;100.00;92640.88;2105867;28;20027;-86
2024/04/08 02:01:00;;;;;;;6.90;2.03;;;;;;;14.20;100.00;92645.22;2097505;28;20477;-84
2024/04/08 02:02:01;;;;;;;7.85;1.42;;;;;;;14.32;100.00;92647.00;2105835;28;20032;-85
2024/04/08 02:03:03;;;;;;;4.03;1.40;;;;;;;14.17;100.00;92646.09;2106071;28;20027;-87
2024/04/08 02:04:04;;;;;;;5.30;1.27;;;;;;;14.05;100.00;92653.16;2114298;28;20023;-88
2024/04/08 02:05:05;;;;;;;7.15;2.00;;;;;;;14.10;100.00;92655.22;2106000;28;20020;-84
2024/04/08 02:06:06;;;;;;;9.48;2.03;;;;;;;14.24;100.00;92648.50;2114072;28;20499;-85
2024/04/08 02:07:07;;;;;;;5.25;1.33;;;;;;;14.29;100.00;92650.56;2105853;28;20724;-85
2024/04/08 02:08:08;;;;;;;5.38;1.83;;;;;;;14.37;100.00;92649.06;2105778;28;20027;-88
2024/04/08 02:09:09;;;;;;;7.88;1.98;;;;;;;14.21;100.00;92652.06;2097467;28;20032;-85
2024/04/08 02:10:10;;;;;;;7.63;1.80;;;;;;;14.02;100.00;92657.47;2097458;28;20024;-86
2024/04/08 02:11:11;;;;;;;4.15;1.30;;;;;;;13.91;100.00;92659.84;2097485;28;20117;-85
2024/04/08 02:12:12;;;;;;;2.63;1.23;;;;;;;13.93;100.00;92660.16;2105627;28;20027;-89
2024/04/08 02:13:13;;;;;;;4.70;1.45;;;;;;;14.04;100.00;92660.44;2105795;28;20028;-85
2024/04/08 02:14:14;;;;;;;4.80;1.65;;;;;;;14.26;100.00;92654.16;2097515;28;20025;-85
2024/04/08 02:15:15;;;;;;;6.70;1.55;;;;;;;14.30;100.00;92654.75;2097349;28;20677;-85
2024/04/08 02:16:16;;;;;;;5.05;1.58;;;;;;;14.15;100.00;92662.69;2105817;28;20093;-84
2024/04/08 02:17:17;;;;;;;6.68;1.60;;;;;;;14.02;100.00;92659.41;2105785;28;20442;-85
2024/04/08 02:18:18;;;;;;;4.43;1.90;;;;;;;13.76;100.00;92658.97;2097494;28;20470;-85
2024/04/08 02:19:19;;;;;;;3.58;1.40;;;;;;;13.96;100.00;92670.03;2097277;28;20477;-87
2024/04/08 02:20:20;;;;;;;5.82;1.50;;;;;;;13.93;100.00;92657.47;2097349;28;20120;-86
2024/04/08 02:21:21;;;;;;;3.88;1.30;;;;;;;13.94;100.00;92667.03;2105830;28;20031;-87
2024/04/08 02:22:22;;;;;;;6.50;1.83;;;;;;;14.04;100.00;92662.38;2100579;28;20103;-87
2024/04/08 02:23:23;;;;;;;6.28;1.40;;;;;;;13.97;100.00;92655.38;2122694;27;20042;-85
2024/04/08 02:24:24;;;;;;;5.10;1.75;;;;;;;13.97;100.00;92657.34;2105652;28;20020;-87
2024/04/08 02:25:25;;;;;;;5.15;1.50;;;;;;;13.87;100.00;92664.63;2097616;28;20028;-86
2024/04/08 02:27:40;;;;;;;;;;;;;;;12.40;100.00;92669.50;2147840;27;20577;-81
2024/04/08 02:28:41;;;;;;;8.38;1.40;;;;;;;12.54;100.00;92671.66;2130058;27;19915;-85
2024/04/08 02:29:43;;;;;;;3.38;1.30;;;;;;;12.19;100.00;92675.63;2121731;27;20426;-81
2024/04/08 02:30:44;;;;;;;10.52;1.35;;;;;;;12.18;100.00;92680.22;2130188;27;20376;-82
2024/04/08 02:31:45;;;;;;;5.85;1.42;;;;;;;12.10;100.00;92674.34;2121531;27;20033;-85
2024/04/08 02:32:46;;;;;;;7.28;1.88;;;;;;;11.96;100.00;92684.81;2130025;27;20112;-84
2024/04/08 02:33:47;;;;;;;6.43;1.70;;;;;;;11.98;100.00;92682.44;2135694;27;20022;-83
2024/04/08 02:34:48;;;;;;;11.23;1.92;;;;;;;12.20;100.00;92677.84;2119306;28;20029;-82
2024/04/08 02:35:49;;;;;;;6.72;1.80;;;;;;;12.15;100.00;92678.41;2112961;28;20452;-83
2024/04/08 02:36:50;;;;;;;6.25;2.10;;;;;;;12.12;100.00;92681.25;2114437;27;20502;-84
2024/04/08 02:37:51;;;;;;;11.77;2.58;;;;;;;12.36;100.00;92674.25;2121368;28;20122;-84
2024/04/08 02:38:52;;;;;;;7.00;1.88;;;;;;;12.37;100.00;92678.41;2119366;28;20027;-82
2024/04/08 02:39:53;;;;;;;6.90;1.70;;;;;;;12.39;100.00;92681.41;2119759;27;20022;-86
2024/04/08 02:40:54;;;;;;;6.88;1.75;;;;;;;12.25;100.00;92673.88;2113093;28;20054;-84
2024/04/08 02:41:55;;;;;;;7.45;2.05;;;;;;;12.16;100.00;92679.16;2108999;28;20488;-83
2024/04/08 02:42:56;;;;;;;5.03;1.38;;;;;;;12.12;100.00;92679.31;2121233;28;20023;-85
2024/04/08 02:43:57;;;;;;;9.05;1.92;;;;;;;12.16;100.00;92679.94;2121337;28;20070;-85
2024/04/08 02:44:57;;;;;;;9.52;2.20;;;;;;;12.04;100.00;92675.38;2121111;28;20037;-84
2024/04/08 02:45:58;;;;;;;6.00;1.60;;;;;;;12.19;100.00;92679.03;2113097;28;20027;-85
2024/04/08 02:47:00;;;;;;;5.90;1.58;;;;;;;12.22;100.00;92674.75;2129759;27;20033;-85
2024/04/08 02:48:00;;;;;;;5.57;1.60;;;;;;;12.13;100.00;92669.31;2129904;27;20027;-85
2024/04/08 02:49:01;;;;;;;8.18;1.80;;;;;;;12.24;100.00;92675.03;2121137;28;20101;-86
2024/04/08 02:50:03;;;;;;;5.22;1.80;;;;;;;12.38;100.00;92666.53;2112820;28;20024;-84
2024/04/08 02:51:07;;;;;;;7.25;1.90;;;;;;;12.42;100.00;92669.78;2120663;28;20024;-84
2024/04/08 02:52:19;;;;;;;7.03;1.70;;;;;;;12.46;100.00;92677.72;2121294;28;20028;-84
2024/04/08 02:53:20;;;;;;;6.97;2.00;;;;;;;12.23;100.00;92681.59;2119625;28;20096;-85
2024/04/08 02:54:21;;;;;;;5.07;1.58;;;;;;;12.07;100.00;92674.47;2112897;28;20061;-84
2024/04/08 02:55:23;;;;;;;5.15;1.60;;;;;;;12.09;100.00;92680.16;2119623;28;20026;-85
2024/04/08 02:56:24;;;;;;;10.43;1.83;;;;;;;12.04;100.00;92675.38;2112874;27;20027;-86
2024/04/08 02:57:25;;;;;;;9.10;2.05;;;;;;;11.90;100.00;92687.31;2121098;27;20851;-84
2024/04/08 02:58:26;;;;;;;7.18;1.88;;;;;;;12.02;100.00;92681.13;2117210;28;20038;-84
2024/04/08 02:59:27;;;;;;;4.47;1.50;;;;;;;11.91;100.00;92693.41;2108452;28;20029;-83
2024/04/08 03:00:28;;;;;;;7.60;1.67;;;;;;;11.99;100.00;92692.00;2104358;28;20123;-83
2024/04/08 03:01:30;;;;;;;10.75;2.20;;;;;;;11.98;100.00;92696.59;2113319;27;20036;-82
2024/04/08 03:02:37;;;;;;;6.90;1.80;;;;;;;11.92;100.00;92687.63;2108245;28;20547;-82
2024/04/08 03:03:38;;;;;;;10.65;2.10;;;;;;;11.97;100.00;92689.00;2113788;28;20186;-84
2024/04/08 03:04:39;;;;;;;9.35;2.28;;;;;;;11.88;100.00;92683.56;2112603;28;20035;-82
2024/04/08 03:05:40;;;;;;;12.25;2.00;;;;;;;12.05;100.00;92684.91;2127130;27;20050;-84
2024/04/08 03:06:41;;;;;;;7.95;1.67;;;;;;;12.15;100.00;92683.78;2121199;28;20019;-85
2024/04/08 03:07:42;;;;;;;8.18;1.60;;;;;;;12.13;100.00;92680.03;2112723;28;20020;-84
2024/04/08 03:08:43;;;;;;;10.75;2.20;;;;;;;12.26;100.00;92691.44;2110483;28;20024;-86
2024/04/08 03:09:51;;;;;;;10.00;2.10;;;;;;;12.33;100.00;92686.56;2095844;28;20029;-85
2024/04/08 03:10:57;;;;;;;11.40;2.30;;;;;;;12.30;100.00;92700.13;2112689;27;20035;-84
2024/04/08 03:11:58;;;;;;;12.80;2.05;;;;;;;12.30;100.00;92694.75;2107483;28;20341;-85
2024/04/08 03:12:59;;;;;;;8.75;1.67;;;;;;;12.31;100.00;92701.59;2104973;28;20032;-84
2024/04/08 03:14:00;;;;;;;8.35;2.30;;;;;;;12.48;100.00;92689.50;2112610;28;20055;-84
2024/04/08 03:15:02;;;;;;;7.53;1.80;;;;;;;12.47;100.00;92682.66;2112350;28;20027;-84
2024/04/08 03:16:03;;;;;;;10.00;1.95;;;;;;;12.71;100.00;92679.50;2107649;28;20028;-84
2024/04/08 03:17:05;;;;;;;9.95;2.22;;;;;;;13.16;100.00;92676.25;2113475;27;20026;-83
2024/04/08 03:18:09;;;;;;;8.45;2.35;;;;;;;13.03;100.00;92687.09;2120860;28;20019;-83
2024/04/08 03:19:10;;;;;;;10.85;2.13;;;;;;;12.97;100.00;92691.53;2112999;28;20110;-85
2024/04/08 03:20:11;;;;;;;6.32;2.10;;;;;;;13.06;100.00;92682.78;2112510;28;20027;-82
2024/04/08 03:21:12;;;;;;;9.38;2.63;;;;;;;13.01;100.00;92680.69;2122896;27;20031;-82
2024/04/08 03:22:13;;;;;;;9.77;2.30;;;;;;;13.42;88.56;92684.84;2129424;27;20091;-86
2024/04/08 03:23:21;;;;;;;5.05;1.20;;;;;;;14.34;69.08;92671.47;2105979;28;20031;-82
2024/04/08 03:24:22;;;;;;;7.80;1.55;;;;;;;14.46;70.27;92681.31;2113563;27;20448;-83
2024/04/08 03:25:23;;;;;;;6.88;1.80;;;;;;;14.45;78.69;92684.47;2112379;28;20020;-85
2024/04/08 03:26:24;;;;;;;8.80;1.70;;;;;;;14.36;79.68;92677.91;2111039;28;20015;-84
2024/04/08 03:27:25;;;;;;;5.15;1.40;;;;;;;14.19;79.60;92692.13;2108231;28;20126;-84
2024/04/08 03:28:26;;;;;;;7.78;1.60;;;;;;;14.32;80.82;92677.31;2098100;28;20028;-85
2024/04/08 03:29:27;;;;;;;5.18;1.40;;;;;;;14.39;72.39;92675.50;2111738;28;20028;-82
2024/04/08 03:30:30;;;;;;;6.90;1.23;;;;;;;14.29;79.33;92693.59;2109335;28;20673;-86
2024/04/08 03:31:31;;;;;;;8.98;1.70;;;;;;;14.21;74.10;92689.72;2119748;28;20019;-85
2024/04/08 03:32:32;;;;;;;6.10;2.05;;;;;;;14.30;77.08;92684.31;2111786;28;20043;-83
2024/04/08 03:33:34;;;;;;;4.80;1.55;;;;;;;14.21;76.70;92690.47;2109156;28;20141;-84
2024/04/08 03:34:35;;;;;;;7.80;2.05;;;;;;;14.00;80.71;92686.72;2110524;27;20019;-82
2024/04/08 03:35:37;;;;;;;7.90;1.60;;;;;;;14.10;80.95;92687.50;2116973;28;20023;-84
2024/04/08 03:36:38;;;;;;;5.78;1.70;;;;;;;13.82;83.92;92689.41;2124184;27;20023;-84
2024/04/08 03:37:39;;;;;;;6.45;1.70;;;;;;;13.85;83.05;92683.88;2113614;28;20027;-82
2024/04/08 03:38:40;;;;;;;8.30;1.95;;;;;;;13.84;84.93;92687.78;2092262;28;20135;-85
2024/04/08 03:39:41;;;;;;;10.98;2.00;;;;;;;13.78;85.47;92683.41;2110573;27;20019;-81
2024/04/08 03:40:43;;;;;;;5.32;1.70;;;;;;;13.73;87.04;92679.38;2107375;28;20079;-84
2024/04/08 03:41:44;;;;;;;11.07;1.80;;;;;;;13.66;83.49;92681.63;2109681;27;20028;-85
2024/04/08 03:42:45;;;;;;;10.77;2.13;;;;;;;13.42;89.13;92671.44;2108978;28;20024;-84
2024/04/08 03:43:47;;;;;;;8.82;2.15;;;;;;;13.50;89.40;92677.28;2102584;28;20040;-83
2024/04/08 03:44:48;;;;;;;4.95;1.55;;;;;;;13.40;92.92;92679.19;2108200;27;20024;-84
2024/04/08 03:45:50;;;;;;;5.80;1.60;;;;;;;13.34;92.35;92681.72;2120035;27;20106;-87
2024/04/08 03:46:51;;;;;;;7.85;1.88;;;;;;;13.31;93.23;92674.56;2106094;28;20020;-83
2024/04/08 03:47:52;;;;;;;9.10;1.50;;;;;;;13.30;92.98;92680.34;2102030;28;20025;-83
2024/04/08 03:48:54;;;;;;;4.93;1.40;;;;;;;13.21;92.75;92675.66;2094094;28;20024;-83
2024/04/08 03:49:55;;;;;;;6.82;1.50;;;;;;;13.38;90.11;92673.50;2099522;28;20078;-86
2024/04/08 03:50:56;;;;;;;7.50;2.10;;;;;;;13.19;85.88;92669.25;2121376;27;20023;-83
2024/04/08 03:51:57;;;;;;;3.28;1.27;;;;;;;13.37;73.41;92671.28;2098423;28;20058;-84
2024/04/08 03:52:58;;;;;;;4.40;1.25;;;;;;;13.33;77.83;92660.69;2084972;28;20090;-85
2024/04/08 03:53:59;;;;;;;6.45;1.25;;;;;;;13.24;84.24;92671.38;2102532;28;20500;-85
2024/04/08 03:54:59;;;;;;;5.50;1.00;;;;;;;13.26;81.22;92661.72;2116352;27;20031;-86
2024/04/08 03:56:08;;;;;;;4.75;1.30;;;;;;;13.20;81.56;92662.69;2110079;28;20408;-86
2024/04/08 03:57:15;;;;;;;8.23;1.55;;;;;;;13.24;83.31;92664.09;2116416;27;20023;-86
2024/04/08 03:58:16;;;;;;;4.13;1.58;;;;;;;13.29;80.83;92673.50;2113730;27;20026;-85
2024/04/08 03:59:17;;;;;;;6.25;1.27;;;;;;;13.27;79.77;92665.88;2111351;28;20069;-85
2024/04/08 04:00:18;;;;;;;8.50;2.08;;;;;;;13.42;81.32;92657.25;2117963;27;20019;-84
2024/04/08 04:01:20;;;;;;;8.50;1.58;;;;;;;13.37;81.05;92652.47;2105641;27;20031;-83
2024/04/08 04:02:21;;;;;;;5.82;1.80;;;;;;;13.33;81.85;92664.09;2103270;28;20528;-84
2024/04/08 04:03:22;;;;;;;5.47;1.67;;;;;;;13.31;72.09;92660.38;2102485;28;20027;-84
2024/04/08 04:04:24;;;;;;;7.47;1.50;;;;;;;13.40;72.83;92652.34;2108981;28;20035;-82
2024/04/08 04:05:25;;;;;;;7.53;1.13;;;;;;;13.34;72.80;92651.44;2110292;28;20024;-85
2024/04/08 04:06:28;;;;;;;7.38;1.30;;;;;;;13.53;72.16;92650.28;2110046;27;20505;-82
2024/04/08 04:07:28;;;;;;;5.55;1.05;;;;;;;13.47;71.10;92654.00;2111215;27;20039;-83
2024/04/08 04:08:29;;;;;;;6.20;1.05;;;;;;;13.34;70.27;92640.69;2114145;28;20079;-84
2024/04/08 04:09:30;;;;;;;5.30;1.30;;;;;;;13.23;67.92;92640.38;2113405;28;20031;-85
2024/04/08 04:10:31;;;;;;;6.18;1.20;;;;;;;13.31;70.37;92645.03;2098940;28;20505;-85
2024/04/08 04:11:33;;;;;;;6.05;1.50;;;;;;;13.77;58.15;92638.94;2098165;28;20032;-84
2024/04/08 04:12:38;;;;;;;6.32;1.20;;;;;;;13.90;59.97;92641.50;2099087;28;20533;-84
2024/04/08 04:13:39;;;;;;;3.10;0.80;;;;;;;13.97;58.48;92638.53;2101259;28;20027;-85
2024/04/08 04:14:56;;;;;;;5.53;1.23;;;;;;;14.45;54.77;92628.00;2114302;27;20024;-86
2024/04/08 04:15:57;;;;;;;6.25;0.98;;;;;;;14.67;56.40;92636.63;2106719;28;20024;-87
2024/04/08 04:16:58;;;;;;;4.53;0.93;;;;;;;14.68;58.16;92634.69;2116266;27;20030;-85
2024/04/08 04:18:00;;;;;;;5.30;1.05;;;;;;;14.63;57.41;92635.31;2091568;28;20027;-83
2024/04/08 04:19:01;;;;;;;3.05;0.88;;;;;;;14.50;57.24;92635.50;2097954;28;20040;-84
2024/04/08 04:20:04;;;;;;;3.47;0.90;;;;;;;14.54;58.55;92633.38;2102603;27;20029;-85
2024/04/08 04:21:07;;;;;;;3.35;1.00;;;;;;;14.88;51.69;92645.66;2116629;27;20035;-84
2024/04/08 04:22:08;;;;;;;6.28;1.05;;;;;;;14.80;53.43;92639.13;2106544;28;20027;-85
2024/04/08 04:23:16;;;;;;;5.53;0.82;;;;;;;14.82;54.14;92642.84;2096089;28;21052;-82
2024/04/08 04:24:17;;;;;;;4.90;0.98;;;;;;;14.75;54.30;92639.72;2096261;28;20267;-84
2024/04/08 04:25:18;;;;;;;4.70;1.27;;;;;;;14.60;55.13;92642.31;2094025;28;20034;-83
2024/04/08 04:26:20;;;;;;;2.22;1.10;;;;;;;14.41;57.32;92635.47;2101961;28;20155;-84
2024/04/08 04:27:21;;;;;;;5.55;1.20;;;;;;;14.73;55.12;92637.50;2098720;28;20040;-83
2024/04/08 04:28:22;;;;;;;3.88;0.95;;;;;;;14.64;56.14;92634.84;2090929;28;20428;-85
2024/04/08 04:29:22;;;;;;;10.02;1.55;;;;;;;14.46;56.85;92642.94;2084800;28;20029;-84
2024/04/08 04:30:23;;;;;;;7.03;1.10;;;;;;;14.50;53.29;92638.19;2106514;28;20054;-83
2024/04/08 04:31:25;;;;;;;4.97;1.13;;;;;;;14.63;54.94;92646.06;2108515;28;20024;-84
2024/04/08 04:32:26;;;;;;;3.45;1.20;;;;;;;14.53;56.91;92640.72;2096098;28;20663;-84
2024/04/08 04:33:26;;;;;;;5.47;1.08;;;;;;;14.64;56.34;92637.53;2107559;28;20031;-84
2024/04/08 04:34:27;;;;;;;4.43;1.33;;;;;;;14.90;52.71;92645.22;2104196;28;20028;-85
2024/04/08 04:35:28;;;;;;;3.40;1.00;;;;;;;14.83;53.76;92635.53;2079741;28;20724;-86
2024/04/08 04:36:30;;;;;;;6.03;1.20;;;;;;;14.79;53.28;92638.41;2089734;28;20465;-86
2024/04/08 04:37:31;;;;;;;3.22;0.82;;;;;;;15.17;51.34;92634.34;2096467;28;20328;-88
2024/04/08 04:38:32;;;;;;;5.40;1.08;;;;;;;15.04;52.63;92634.53;2107521;28;20032;-83
2024/04/08 04:39:32;;;;;;;6.03;1.40;;;;;;;14.87;52.43;92636.09;2104555;28;20443;-84
2024/04/08 04:40:34;;;;;;;4.50;1.00;;;;;;;14.83;54.25;92633.56;2106116;28;20024;-82
2024/04/08 04:41:39;;;;;;;5.57;1.40;;;;;;;14.78;51.33;92625.38;2098183;28;20051;-83
2024/04/08 04:42:44;;;;;;;5.05;1.20;;;;;;;15.31;48.71;92627.53;2100223;28;20031;-83
2024/04/08 04:43:44;;;;;;;5.40;1.30;;;;;;;15.51;49.62;92621.59;2105328;28;20023;-84
2024/04/08 04:44:45;;;;;;;2.97;1.42;;;;;;;15.21;51.56;92618.03;2110961;28;20065;-83
2024/04/08 04:45:46;;;;;;;6.00;0.90;;;;;;;15.09;51.87;92627.78;2106016;28;20031;-81
2024/04/08 04:46:48;;;;;;;6.72;1.02;;;;;;;15.40;48.65;92630.16;2098375;28;20038;-84
2024/04/08 04:47:49;;;;;;;4.22;1.23;;;;;;;15.57;46.66;92627.81;2104373;28;20034;-84
2024/04/08 04:48:50;;;;;;;7.25;1.10;;;;;;;15.98;46.62;92639.69;2086525;28;20330;-85
2024/04/08 04:49:51;;;;;;;4.45;1.20;;;;;;;15.91;47.63;92633.91;2088427;28;20032;-86